sensor_id;sensor_type;location;lat;lon;timestamp;P1;durP1;ratioP1;P2;durP2;ratioP2
24277;SDS011;12394;42.692;23.314;2023-08-12T00:00:40;4.10;;;3.30;;
24277;SDS011;12394;42.692;23.314;2023-08-12T00:03:06;6.33;;;3.83;;
24277;SDS011;12394;42.692;23.314;2023-08-12T00:05:31;6.47;;;3.33;;
24277;SDS011;12394;42.692;23.314;2023-08-12T00:07:57;6.67;;;3.27;;
24277;SDS011;12394;42.692;23.314;2023-08-12T00:10:22;3.90;;;3.50;;
24277;SDS011;12394;42.692;23.314;2023-08-12T00:12:48;3.83;;;3.40;;
24277;SDS011;12394;42.692;23.314;2023-08-12T00:15:13;3.43;;;3.13;;
24277;SDS011;12394;42.692;23.314;2023-08-12T00:17:39;5.83;;;3.57;;
24277;SDS011;12394;42.692;23.314;2023-08-12T00:20:06;3.67;;;2.93;;
24277;SDS011;12394;42.692;23.314;2023-08-12T00:22:33;6.87;;;3.30;;
24277;SDS011;12394;42.692;23.314;2023-08-12T00:24:59;5.67;;;3.40;;
24277;SDS011;12394;42.692;23.314;2023-08-12T00:27:25;3.40;;;3.03;;
24277;SDS011;12394;42.692;23.314;2023-08-12T00:29:50;3.67;;;3.20;;
24277;SDS011;12394;42.692;23.314;2023-08-12T00:32:16;4.23;;;3.07;;
24277;SDS011;12394;42.692;23.314;2023-08-12T00:34:41;5.20;;;3.27;;
24277;SDS011;12394;42.692;23.314;2023-08-12T00:37:07;3.30;;;2.63;;
24277;SDS011;12394;42.692;23.314;2023-08-12T00:39:33;3.60;;;2.83;;
24277;SDS011;12394;42.692;23.314;2023-08-12T00:41:58;4.13;;;3.00;;
24277;SDS011;12394;42.692;23.314;2023-08-12T00:44:23;4.63;;;3.80;;
24277;SDS011;12394;42.692;23.314;2023-08-12T00:46:49;4.90;;;3.27;;
24277;SDS011;12394;42.692;23.314;2023-08-12T00:49:15;4.70;;;3.20;;
24277;SDS011;12394;42.692;23.314;2023-08-12T00:51:42;3.17;;;2.87;;
24277;SDS011;12394;42.692;23.314;2023-08-12T00:54:11;8.57;;;3.17;;
24277;SDS011;12394;42.692;23.314;2023-08-12T00:56:39;5.93;;;3.40;;
24277;SDS011;12394;42.692;23.314;2023-08-12T00:59:05;4.03;;;3.00;;
24277;SDS011;12394;42.692;23.314;2023-08-12T01:01:34;3.83;;;3.17;;
24277;SDS011;12394;42.692;23.314;2023-08-12T01:04:00;3.77;;;3.30;;
24277;SDS011;12394;42.692;23.314;2023-08-12T01:06:25;3.40;;;3.03;;
24277;SDS011;12394;42.692;23.314;2023-08-12T01:08:51;3.40;;;3.10;;
24277;SDS011;12394;42.692;23.314;2023-08-12T01:14:06;4.03;;;3.43;;
24277;SDS011;12394;42.692;23.314;2023-08-12T01:16:33;4.60;;;3.13;;
24277;SDS011;12394;42.692;23.314;2023-08-12T01:19:09;5.93;;;3.57;;
24277;SDS011;12394;42.692;23.314;2023-08-12T01:21:41;3.30;;;3.00;;
24277;SDS011;12394;42.692;23.314;2023-08-12T01:24:09;6.00;;;3.00;;
24277;SDS011;12394;42.692;23.314;2023-08-12T01:26:34;4.53;;;3.10;;
24277;SDS011;12394;42.692;23.314;2023-08-12T01:29:00;3.80;;;3.40;;
24277;SDS011;12394;42.692;23.314;2023-08-12T01:34:26;5.07;;;3.30;;
24277;SDS011;12394;42.692;23.314;2023-08-12T01:37:01;5.53;;;3.30;;
24277;SDS011;12394;42.692;23.314;2023-08-12T01:39:29;4.40;;;3.40;;
24277;SDS011;12394;42.692;23.314;2023-08-12T01:41:56;4.20;;;3.40;;
24277;SDS011;12394;42.692;23.314;2023-08-12T01:44:22;6.83;;;3.50;;
24277;SDS011;12394;42.692;23.314;2023-08-12T01:46:48;5.57;;;3.77;;
24277;SDS011;12394;42.692;23.314;2023-08-12T01:49:14;5.43;;;3.27;;
24277;SDS011;12394;42.692;23.314;2023-08-12T01:51:39;6.93;;;3.83;;
24277;SDS011;12394;42.692;23.314;2023-08-12T01:54:05;6.23;;;4.30;;
24277;SDS011;12394;42.692;23.314;2023-08-12T01:56:30;5.10;;;4.40;;
24277;SDS011;12394;42.692;23.314;2023-08-12T01:58:55;5.53;;;4.20;;
24277;SDS011;12394;42.692;23.314;2023-08-12T02:01:21;9.67;;;4.17;;
24277;SDS011;12394;42.692;23.314;2023-08-12T02:03:46;5.20;;;4.20;;
24277;SDS011;12394;42.692;23.314;2023-08-12T02:06:12;6.07;;;3.70;;
24277;SDS011;12394;42.692;23.314;2023-08-12T02:08:37;4.23;;;3.67;;
24277;SDS011;12394;42.692;23.314;2023-08-12T02:11:02;6.17;;;3.83;;
24277;SDS011;12394;42.692;23.314;2023-08-12T02:13:29;7.90;;;3.47;;
24277;SDS011;12394;42.692;23.314;2023-08-12T02:15:55;4.93;;;4.03;;
24277;SDS011;12394;42.692;23.314;2023-08-12T02:18:20;5.50;;;3.37;;
24277;SDS011;12394;42.692;23.314;2023-08-12T02:20:49;4.27;;;3.53;;
24277;SDS011;12394;42.692;23.314;2023-08-12T02:23:14;3.97;;;3.57;;
24277;SDS011;12394;42.692;23.314;2023-08-12T02:25:40;4.77;;;3.60;;
24277;SDS011;12394;42.692;23.314;2023-08-12T02:28:05;6.80;;;3.87;;
24277;SDS011;12394;42.692;23.314;2023-08-12T02:30:31;3.50;;;3.20;;
24277;SDS011;12394;42.692;23.314;2023-08-12T02:32:56;5.73;;;3.70;;
24277;SDS011;12394;42.692;23.314;2023-08-12T02:35:22;5.03;;;3.50;;
24277;SDS011;12394;42.692;23.314;2023-08-12T02:37:48;5.40;;;3.33;;
24277;SDS011;12394;42.692;23.314;2023-08-12T02:40:14;6.63;;;3.50;;
24277;SDS011;12394;42.692;23.314;2023-08-12T02:42:39;5.33;;;3.57;;
24277;SDS011;12394;42.692;23.314;2023-08-12T02:45:05;4.83;;;3.43;;
24277;SDS011;12394;42.692;23.314;2023-08-12T02:47:30;4.27;;;3.70;;
24277;SDS011;12394;42.692;23.314;2023-08-12T02:49:56;4.93;;;3.70;;
24277;SDS011;12394;42.692;23.314;2023-08-12T02:52:21;4.53;;;3.43;;
24277;SDS011;12394;42.692;23.314;2023-08-12T02:54:47;4.63;;;3.20;;
24277;SDS011;12394;42.692;23.314;2023-08-12T02:57:12;4.40;;;3.30;;
24277;SDS011;12394;42.692;23.314;2023-08-12T02:59:38;4.53;;;2.73;;
24277;SDS011;12394;42.692;23.314;2023-08-12T03:02:03;4.47;;;3.53;;
24277;SDS011;12394;42.692;23.314;2023-08-12T03:04:29;4.83;;;3.10;;
24277;SDS011;12394;42.692;23.314;2023-08-12T03:06:54;3.60;;;3.30;;
24277;SDS011;12394;42.692;23.314;2023-08-12T03:09:19;3.60;;;3.20;;
24277;SDS011;12394;42.692;23.314;2023-08-12T03:11:45;6.07;;;3.37;;
24277;SDS011;12394;42.692;23.314;2023-08-12T03:14:10;3.87;;;3.20;;
24277;SDS011;12394;42.692;23.314;2023-08-12T03:16:36;5.73;;;3.40;;
24277;SDS011;12394;42.692;23.314;2023-08-12T03:19:01;3.87;;;3.40;;
24277;SDS011;12394;42.692;23.314;2023-08-12T03:21:27;4.70;;;3.10;;
24277;SDS011;12394;42.692;23.314;2023-08-12T03:23:53;4.03;;;3.63;;
24277;SDS011;12394;42.692;23.314;2023-08-12T03:26:18;4.27;;;3.20;;
24277;SDS011;12394;42.692;23.314;2023-08-12T03:28:44;5.60;;;4.07;;
24277;SDS011;12394;42.692;23.314;2023-08-12T03:31:09;3.27;;;2.97;;
24277;SDS011;12394;42.692;23.314;2023-08-12T03:33:35;4.70;;;3.40;;
24277;SDS011;12394;42.692;23.314;2023-08-12T03:36:00;3.13;;;2.83;;
24277;SDS011;12394;42.692;23.314;2023-08-12T03:38:26;4.60;;;3.30;;
24277;SDS011;12394;42.692;23.314;2023-08-12T03:40:51;6.03;;;3.23;;
24277;SDS011;12394;42.692;23.314;2023-08-12T03:43:16;3.60;;;2.87;;
24277;SDS011;12394;42.692;23.314;2023-08-12T03:45:42;7.43;;;2.73;;
24277;SDS011;12394;42.692;23.314;2023-08-12T03:48:09;8.43;;;3.50;;
24277;SDS011;12394;42.692;23.314;2023-08-12T03:50:38;5.27;;;3.20;;
24277;SDS011;12394;42.692;23.314;2023-08-12T03:53:04;9.07;;;3.30;;
24277;SDS011;12394;42.692;23.314;2023-08-12T03:55:31;5.17;;;3.60;;
24277;SDS011;12394;42.692;23.314;2023-08-12T03:57:57;6.30;;;3.20;;
24277;SDS011;12394;42.692;23.314;2023-08-12T04:00:24;6.70;;;3.23;;
24277;SDS011;12394;42.692;23.314;2023-08-12T04:02:49;6.63;;;3.47;;
24277;SDS011;12394;42.692;23.314;2023-08-12T04:05:14;6.33;;;3.87;;
24277;SDS011;12394;42.692;23.314;2023-08-12T04:07:42;11.53;;;4.23;;
24277;SDS011;12394;42.692;23.314;2023-08-12T04:10:07;6.77;;;3.50;;
24277;SDS011;12394;42.692;23.314;2023-08-12T04:12:33;5.43;;;3.13;;
24277;SDS011;12394;42.692;23.314;2023-08-12T04:14:59;7.53;;;3.50;;
24277;SDS011;12394;42.692;23.314;2023-08-12T04:17:25;11.57;;;3.60;;
24277;SDS011;12394;42.692;23.314;2023-08-12T04:19:51;8.27;;;3.50;;
24277;SDS011;12394;42.692;23.314;2023-08-12T04:22:16;7.17;;;3.63;;
24277;SDS011;12394;42.692;23.314;2023-08-12T04:24:42;7.43;;;3.87;;
24277;SDS011;12394;42.692;23.314;2023-08-12T04:27:07;6.17;;;3.60;;
24277;SDS011;12394;42.692;23.314;2023-08-12T04:29:32;7.50;;;4.20;;
24277;SDS011;12394;42.692;23.314;2023-08-12T04:31:58;6.20;;;3.60;;
24277;SDS011;12394;42.692;23.314;2023-08-12T04:34:23;13.03;;;4.50;;
24277;SDS011;12394;42.692;23.314;2023-08-12T04:36:48;11.97;;;4.20;;
24277;SDS011;12394;42.692;23.314;2023-08-12T04:39:14;9.77;;;4.43;;
24277;SDS011;12394;42.692;23.314;2023-08-12T04:41:39;11.97;;;4.53;;
24277;SDS011;12394;42.692;23.314;2023-08-12T04:44:05;5.10;;;4.27;;
24277;SDS011;12394;42.692;23.314;2023-08-12T04:46:30;9.33;;;4.33;;
24277;SDS011;12394;42.692;23.314;2023-08-12T04:48:56;7.43;;;4.23;;
24277;SDS011;12394;42.692;23.314;2023-08-12T04:51:21;6.70;;;3.40;;
24277;SDS011;12394;42.692;23.314;2023-08-12T04:53:47;12.37;;;4.13;;
24277;SDS011;12394;42.692;23.314;2023-08-12T04:56:12;6.17;;;3.67;;
24277;SDS011;12394;42.692;23.314;2023-08-12T04:58:38;5.37;;;3.63;;
24277;SDS011;12394;42.692;23.314;2023-08-12T05:01:03;6.57;;;4.00;;
24277;SDS011;12394;42.692;23.314;2023-08-12T05:03:29;4.33;;;3.20;;
24277;SDS011;12394;42.692;23.314;2023-08-12T05:05:54;6.73;;;3.17;;
24277;SDS011;12394;42.692;23.314;2023-08-12T05:08:20;5.63;;;2.90;;
24277;SDS011;12394;42.692;23.314;2023-08-12T05:10:48;5.43;;;3.57;;
24277;SDS011;12394;42.692;23.314;2023-08-12T05:13:14;9.87;;;3.50;;
24277;SDS011;12394;42.692;23.314;2023-08-12T05:15:40;8.77;;;3.90;;
24277;SDS011;12394;42.692;23.314;2023-08-12T05:18:05;4.37;;;3.10;;
24277;SDS011;12394;42.692;23.314;2023-08-12T05:20:31;6.00;;;3.60;;
24277;SDS011;12394;42.692;23.314;2023-08-12T05:22:56;6.93;;;3.73;;
24277;SDS011;12394;42.692;23.314;2023-08-12T05:25:22;8.53;;;3.63;;
24277;SDS011;12394;42.692;23.314;2023-08-12T05:27:48;8.17;;;4.60;;
24277;SDS011;12394;42.692;23.314;2023-08-12T05:30:14;5.97;;;3.60;;
24277;SDS011;12394;42.692;23.314;2023-08-12T05:32:39;4.83;;;3.87;;
24277;SDS011;12394;42.692;23.314;2023-08-12T05:35:05;5.97;;;3.70;;
24277;SDS011;12394;42.692;23.314;2023-08-12T05:37:31;4.53;;;3.43;;
24277;SDS011;12394;42.692;23.314;2023-08-12T05:39:56;5.83;;;3.50;;
24277;SDS011;12394;42.692;23.314;2023-08-12T05:42:22;5.73;;;3.50;;
24277;SDS011;12394;42.692;23.314;2023-08-12T05:44:47;4.87;;;3.30;;
24277;SDS011;12394;42.692;23.314;2023-08-12T05:47:13;4.77;;;3.00;;
24277;SDS011;12394;42.692;23.314;2023-08-12T05:49:38;8.77;;;4.43;;
24277;SDS011;12394;42.692;23.314;2023-08-12T05:52:04;4.87;;;3.67;;
24277;SDS011;12394;42.692;23.314;2023-08-12T05:54:30;4.70;;;4.07;;
24277;SDS011;12394;42.692;23.314;2023-08-12T05:56:55;5.33;;;3.73;;
24277;SDS011;12394;42.692;23.314;2023-08-12T05:59:20;5.07;;;3.60;;
24277;SDS011;12394;42.692;23.314;2023-08-12T06:01:46;5.10;;;3.57;;
24277;SDS011;12394;42.692;23.314;2023-08-12T06:04:12;5.77;;;3.77;;
24277;SDS011;12394;42.692;23.314;2023-08-12T06:06:37;6.77;;;3.60;;
24277;SDS011;12394;42.692;23.314;2023-08-12T06:09:02;3.73;;;3.37;;
24277;SDS011;12394;42.692;23.314;2023-08-12T06:11:28;9.33;;;3.70;;
24277;SDS011;12394;42.692;23.314;2023-08-12T06:13:54;6.00;;;3.60;;
24277;SDS011;12394;42.692;23.314;2023-08-12T06:16:19;4.03;;;3.50;;
24277;SDS011;12394;42.692;23.314;2023-08-12T06:18:44;8.83;;;3.70;;
24277;SDS011;12394;42.692;23.314;2023-08-12T06:21:10;6.30;;;3.33;;
24277;SDS011;12394;42.692;23.314;2023-08-12T06:23:35;5.73;;;3.77;;
24277;SDS011;12394;42.692;23.314;2023-08-12T06:26:01;8.53;;;3.63;;
24277;SDS011;12394;42.692;23.314;2023-08-12T06:28:26;9.33;;;4.50;;
24277;SDS011;12394;42.692;23.314;2023-08-12T06:30:52;13.17;;;4.60;;
24277;SDS011;12394;42.692;23.314;2023-08-12T06:33:18;7.17;;;3.97;;
24277;SDS011;12394;42.692;23.314;2023-08-12T06:35:43;11.87;;;4.33;;
24277;SDS011;12394;42.692;23.314;2023-08-12T06:38:09;5.50;;;3.63;;
24277;SDS011;12394;42.692;23.314;2023-08-12T06:40:35;6.70;;;3.80;;
24277;SDS011;12394;42.692;23.314;2023-08-12T06:43:01;5.80;;;3.30;;
24277;SDS011;12394;42.692;23.314;2023-08-12T06:45:26;6.77;;;3.30;;
24277;SDS011;12394;42.692;23.314;2023-08-12T06:47:51;6.57;;;3.70;;
24277;SDS011;12394;42.692;23.314;2023-08-12T06:50:17;7.30;;;4.00;;
24277;SDS011;12394;42.692;23.314;2023-08-12T06:52:42;13.53;;;4.57;;
24277;SDS011;12394;42.692;23.314;2023-08-12T06:55:08;3.73;;;3.40;;
24277;SDS011;12394;42.692;23.314;2023-08-12T06:57:33;6.03;;;3.70;;
24277;SDS011;12394;42.692;23.314;2023-08-12T06:59:59;7.03;;;4.37;;
24277;SDS011;12394;42.692;23.314;2023-08-12T07:02:24;6.20;;;3.60;;
24277;SDS011;12394;42.692;23.314;2023-08-12T07:04:50;7.37;;;3.60;;
24277;SDS011;12394;42.692;23.314;2023-08-12T07:07:15;7.40;;;3.90;;
24277;SDS011;12394;42.692;23.314;2023-08-12T07:09:40;7.40;;;4.13;;
24277;SDS011;12394;42.692;23.314;2023-08-12T07:12:06;5.33;;;3.67;;
24277;SDS011;12394;42.692;23.314;2023-08-12T07:14:31;5.97;;;3.03;;
24277;SDS011;12394;42.692;23.314;2023-08-12T07:16:57;5.27;;;3.43;;
24277;SDS011;12394;42.692;23.314;2023-08-12T07:19:22;5.73;;;3.40;;
24277;SDS011;12394;42.692;23.314;2023-08-12T07:21:48;9.50;;;3.97;;
24277;SDS011;12394;42.692;23.314;2023-08-12T07:24:13;8.00;;;3.10;;
24277;SDS011;12394;42.692;23.314;2023-08-12T07:26:39;2.93;;;2.70;;
24277;SDS011;12394;42.692;23.314;2023-08-12T07:29:04;3.60;;;3.13;;
24277;SDS011;12394;42.692;23.314;2023-08-12T07:31:29;4.60;;;3.73;;
24277;SDS011;12394;42.692;23.314;2023-08-12T07:33:55;8.27;;;3.50;;
24277;SDS011;12394;42.692;23.314;2023-08-12T07:36:20;4.33;;;3.40;;
24277;SDS011;12394;42.692;23.314;2023-08-12T07:38:46;4.63;;;3.13;;
24277;SDS011;12394;42.692;23.314;2023-08-12T07:41:11;4.93;;;3.20;;
24277;SDS011;12394;42.692;23.314;2023-08-12T07:43:37;5.53;;;3.40;;
24277;SDS011;12394;42.692;23.314;2023-08-12T07:46:02;5.33;;;3.37;;
24277;SDS011;12394;42.692;23.314;2023-08-12T07:48:29;4.87;;;3.30;;
24277;SDS011;12394;42.692;23.314;2023-08-12T07:50:56;8.13;;;3.70;;
24277;SDS011;12394;42.692;23.314;2023-08-12T07:53:22;7.33;;;3.40;;
24277;SDS011;12394;42.692;23.314;2023-08-12T07:55:47;6.27;;;4.80;;
24277;SDS011;12394;42.692;23.314;2023-08-12T07:58:13;6.17;;;3.17;;
24277;SDS011;12394;42.692;23.314;2023-08-12T08:00:39;4.17;;;2.73;;
24277;SDS011;12394;42.692;23.314;2023-08-12T08:03:04;5.33;;;2.80;;
24277;SDS011;12394;42.692;23.314;2023-08-12T08:05:30;5.27;;;2.77;;
24277;SDS011;12394;42.692;23.314;2023-08-12T08:07:55;4.07;;;2.50;;
24277;SDS011;12394;42.692;23.314;2023-08-12T08:10:21;5.37;;;3.20;;
24277;SDS011;12394;42.692;23.314;2023-08-12T08:12:46;7.93;;;3.17;;
24277;SDS011;12394;42.692;23.314;2023-08-12T08:15:12;8.43;;;3.37;;
24277;SDS011;12394;42.692;23.314;2023-08-12T08:17:37;7.17;;;2.70;;
24277;SDS011;12394;42.692;23.314;2023-08-12T08:20:03;4.77;;;2.60;;
24277;SDS011;12394;42.692;23.314;2023-08-12T08:22:30;5.27;;;2.93;;
24277;SDS011;12394;42.692;23.314;2023-08-12T08:24:56;2.50;;;2.03;;
24277;SDS011;12394;42.692;23.314;2023-08-12T08:27:21;6.80;;;2.70;;
24277;SDS011;12394;42.692;23.314;2023-08-12T08:29:47;4.60;;;2.63;;
24277;SDS011;12394;42.692;23.314;2023-08-12T08:32:12;7.00;;;2.67;;
24277;SDS011;12394;42.692;23.314;2023-08-12T08:34:38;4.73;;;3.63;;
24277;SDS011;12394;42.692;23.314;2023-08-12T08:37:03;3.67;;;2.40;;
24277;SDS011;12394;42.692;23.314;2023-08-12T08:39:29;2.90;;;2.60;;
24277;SDS011;12394;42.692;23.314;2023-08-12T08:41:54;3.58;;;2.30;;
24277;SDS011;12394;42.692;23.314;2023-08-12T08:44:21;6.28;;;2.92;;
24277;SDS011;12394;42.692;23.314;2023-08-12T08:46:52;4.00;;;2.83;;
24277;SDS011;12394;42.692;23.314;2023-08-12T08:49:18;2.78;;;2.58;;
24277;SDS011;12394;42.692;23.314;2023-08-12T08:51:45;4.10;;;2.80;;
24277;SDS011;12394;42.692;23.314;2023-08-12T08:54:11;3.75;;;2.70;;
24277;SDS011;12394;42.692;23.314;2023-08-12T08:56:38;4.07;;;2.70;;
24277;SDS011;12394;42.692;23.314;2023-08-12T08:59:04;4.97;;;4.22;;
24277;SDS011;12394;42.692;23.314;2023-08-12T09:01:29;7.68;;;3.70;;
24277;SDS011;12394;42.692;23.314;2023-08-12T09:03:57;7.05;;;3.03;;
24277;SDS011;12394;42.692;23.314;2023-08-12T09:06:25;6.00;;;3.83;;
24277;SDS011;12394;42.692;23.314;2023-08-12T09:08:53;2.85;;;2.40;;
24277;SDS011;12394;42.692;23.314;2023-08-12T09:11:20;6.70;;;2.72;;
24277;SDS011;12394;42.692;23.314;2023-08-12T09:13:46;2.90;;;2.70;;
24277;SDS011;12394;42.692;23.314;2023-08-12T09:16:12;4.55;;;2.95;;
24277;SDS011;12394;42.692;23.314;2023-08-12T09:18:38;7.30;;;3.08;;
24277;SDS011;12394;42.692;23.314;2023-08-12T09:21:05;4.10;;;2.50;;
24277;SDS011;12394;42.692;23.314;2023-08-12T09:23:37;5.65;;;3.10;;
24277;SDS011;12394;42.692;23.314;2023-08-12T09:26:14;2.65;;;2.40;;
24277;SDS011;12394;42.692;23.314;2023-08-12T09:28:41;4.00;;;2.50;;
24277;SDS011;12394;42.692;23.314;2023-08-12T09:31:07;3.80;;;3.30;;
24277;SDS011;12394;42.692;23.314;2023-08-12T09:33:38;6.07;;;2.90;;
24277;SDS011;12394;42.692;23.314;2023-08-12T09:36:04;5.25;;;2.78;;
24277;SDS011;12394;42.692;23.314;2023-08-12T09:38:30;3.88;;;2.55;;
24277;SDS011;12394;42.692;23.314;2023-08-12T09:40:56;4.65;;;2.40;;
24277;SDS011;12394;42.692;23.314;2023-08-12T09:43:24;4.53;;;2.38;;
24277;SDS011;12394;42.692;23.314;2023-08-12T09:45:55;2.60;;;2.38;;
24277;SDS011;12394;42.692;23.314;2023-08-12T09:48:22;3.67;;;2.33;;
24277;SDS011;12394;42.692;23.314;2023-08-12T09:50:48;2.72;;;2.53;;
24277;SDS011;12394;42.692;23.314;2023-08-12T09:53:15;6.72;;;2.97;;
24277;SDS011;12394;42.692;23.314;2023-08-12T09:55:40;3.15;;;2.40;;
24277;SDS011;12394;42.692;23.314;2023-08-12T09:58:09;5.07;;;2.72;;
24277;SDS011;12394;42.692;23.314;2023-08-12T10:00:35;2.63;;;2.42;;
24277;SDS011;12394;42.692;23.314;2023-08-12T10:03:01;4.45;;;2.70;;
24277;SDS011;12394;42.692;23.314;2023-08-12T10:05:27;5.63;;;2.20;;
24277;SDS011;12394;42.692;23.314;2023-08-12T10:07:56;3.63;;;2.55;;
24277;SDS011;12394;42.692;23.314;2023-08-12T10:10:21;3.15;;;2.50;;
24277;SDS011;12394;42.692;23.314;2023-08-12T10:12:50;2.92;;;2.63;;
24277;SDS011;12394;42.692;23.314;2023-08-12T10:15:16;7.32;;;2.80;;
24277;SDS011;12394;42.692;23.314;2023-08-12T10:17:42;3.30;;;2.53;;
24277;SDS011;12394;42.692;23.314;2023-08-12T10:20:09;4.40;;;3.53;;
24277;SDS011;12394;42.692;23.314;2023-08-12T10:22:38;7.93;;;3.58;;
24277;SDS011;12394;42.692;23.314;2023-08-12T10:25:04;3.05;;;2.70;;
24277;SDS011;12394;42.692;23.314;2023-08-12T10:27:33;3.08;;;2.75;;
24277;SDS011;12394;42.692;23.314;2023-08-12T10:30:02;3.85;;;2.90;;
24277;SDS011;12394;42.692;23.314;2023-08-12T10:32:31;4.25;;;2.65;;
24277;SDS011;12394;42.692;23.314;2023-08-12T10:34:57;4.03;;;2.38;;
24277;SDS011;12394;42.692;23.314;2023-08-12T10:37:23;2.97;;;2.55;;
24277;SDS011;12394;42.692;23.314;2023-08-12T10:39:53;5.47;;;2.55;;
24277;SDS011;12394;42.692;23.314;2023-08-12T10:45:09;3.10;;;2.90;;
24277;SDS011;12394;42.692;23.314;2023-08-12T10:47:43;5.70;;;2.72;;
24277;SDS011;12394;42.692;23.314;2023-08-12T10:50:16;3.78;;;2.95;;
24277;SDS011;12394;42.692;23.314;2023-08-12T10:52:46;3.92;;;3.38;;
24277;SDS011;12394;42.692;23.314;2023-08-12T10:57:41;3.53;;;2.60;;
24277;SDS011;12394;42.692;23.314;2023-08-12T11:00:10;6.60;;;2.50;;
24277;SDS011;12394;42.692;23.314;2023-08-12T11:02:38;2.80;;;2.30;;
24277;SDS011;12394;42.692;23.314;2023-08-12T11:05:09;8.13;;;2.80;;
24277;SDS011;12394;42.692;23.314;2023-08-12T11:07:42;3.50;;;2.53;;
24277;SDS011;12394;42.692;23.314;2023-08-12T11:15:26;3.13;;;2.53;;
24277;SDS011;12394;42.692;23.314;2023-08-12T11:17:55;4.20;;;2.10;;
24277;SDS011;12394;42.692;23.314;2023-08-12T11:20:21;5.63;;;3.87;;
24277;SDS011;12394;42.692;23.314;2023-08-12T11:22:46;6.27;;;2.47;;
24277;SDS011;12394;42.692;23.314;2023-08-12T11:25:13;2.17;;;1.93;;
24277;SDS011;12394;42.692;23.314;2023-08-12T11:27:43;4.73;;;2.03;;
24277;SDS011;12394;42.692;23.314;2023-08-12T11:30:10;2.30;;;2.10;;
24277;SDS011;12394;42.692;23.314;2023-08-12T11:32:40;4.03;;;2.47;;
24277;SDS011;12394;42.692;23.314;2023-08-12T11:35:16;5.73;;;2.90;;
24277;SDS011;12394;42.692;23.314;2023-08-12T11:37:50;5.00;;;2.60;;
24277;SDS011;12394;42.692;23.314;2023-08-12T11:40:23;3.00;;;2.00;;
24277;SDS011;12394;42.692;23.314;2023-08-12T11:42:50;4.10;;;2.07;;
24277;SDS011;12394;42.692;23.314;2023-08-12T11:45:20;5.03;;;2.03;;
24277;SDS011;12394;42.692;23.314;2023-08-12T11:47:48;2.10;;;1.90;;
24277;SDS011;12394;42.692;23.314;2023-08-12T11:50:18;4.53;;;1.80;;
24277;SDS011;12394;42.692;23.314;2023-08-12T11:52:45;2.47;;;1.90;;
24277;SDS011;12394;42.692;23.314;2023-08-12T11:55:11;2.10;;;1.90;;
24277;SDS011;12394;42.692;23.314;2023-08-12T11:57:38;3.67;;;1.90;;
24277;SDS011;12394;42.692;23.314;2023-08-12T12:00:05;3.83;;;1.80;;
24277;SDS011;12394;42.692;23.314;2023-08-12T12:02:50;4.83;;;2.23;;
24277;SDS011;12394;42.692;23.314;2023-08-12T12:05:17;2.77;;;2.00;;
24277;SDS011;12394;42.692;23.314;2023-08-12T12:07:47;3.50;;;2.37;;
24277;SDS011;12394;42.692;23.314;2023-08-12T12:10:17;3.23;;;2.80;;
24277;SDS011;12394;42.692;23.314;2023-08-12T12:12:44;2.73;;;2.37;;
24277;SDS011;12394;42.692;23.314;2023-08-12T12:15:10;5.73;;;2.60;;
24277;SDS011;12394;42.692;23.314;2023-08-12T12:17:38;2.83;;;2.30;;
24277;SDS011;12394;42.692;23.314;2023-08-12T12:20:06;3.83;;;2.47;;
24277;SDS011;12394;42.692;23.314;2023-08-12T12:22:32;3.47;;;2.87;;
24277;SDS011;12394;42.692;23.314;2023-08-12T12:25:10;4.33;;;2.30;;
24277;SDS011;12394;42.692;23.314;2023-08-12T12:27:41;7.93;;;2.67;;
24277;SDS011;12394;42.692;23.314;2023-08-12T12:30:08;5.83;;;2.40;;
24277;SDS011;12394;42.692;23.314;2023-08-12T12:32:34;3.13;;;1.83;;
24277;SDS011;12394;42.692;23.314;2023-08-12T12:35:00;2.87;;;2.40;;
24277;SDS011;12394;42.692;23.314;2023-08-12T12:37:25;4.60;;;2.30;;
24277;SDS011;12394;42.692;23.314;2023-08-12T12:39:51;3.03;;;2.30;;
24277;SDS011;12394;42.692;23.314;2023-08-12T12:42:16;4.50;;;2.73;;
24277;SDS011;12394;42.692;23.314;2023-08-12T12:44:42;6.17;;;2.60;;
24277;SDS011;12394;42.692;23.314;2023-08-12T12:47:07;4.23;;;2.53;;
24277;SDS011;12394;42.692;23.314;2023-08-12T12:49:34;2.67;;;2.40;;
24277;SDS011;12394;42.692;23.314;2023-08-12T12:52:00;6.10;;;2.73;;
24277;SDS011;12394;42.692;23.314;2023-08-12T12:54:25;4.87;;;2.80;;
24277;SDS011;12394;42.692;23.314;2023-08-12T12:56:51;3.27;;;2.47;;
24277;SDS011;12394;42.692;23.314;2023-08-12T12:59:16;3.27;;;2.63;;
24277;SDS011;12394;42.692;23.314;2023-08-12T13:01:42;2.63;;;2.23;;
24277;SDS011;12394;42.692;23.314;2023-08-12T13:04:08;3.43;;;2.43;;
24277;SDS011;12394;42.692;23.314;2023-08-12T13:06:34;3.80;;;2.37;;
24277;SDS011;12394;42.692;23.314;2023-08-12T13:08:59;3.10;;;2.33;;
24277;SDS011;12394;42.692;23.314;2023-08-12T13:11:25;5.03;;;3.00;;
24277;SDS011;12394;42.692;23.314;2023-08-12T13:13:51;3.47;;;2.80;;
24277;SDS011;12394;42.692;23.314;2023-08-12T13:16:16;3.20;;;2.23;;
24277;SDS011;12394;42.692;23.314;2023-08-12T13:18:42;3.80;;;2.43;;
24277;SDS011;12394;42.692;23.314;2023-08-12T13:21:08;2.43;;;2.23;;
24277;SDS011;12394;42.692;23.314;2023-08-12T13:23:33;2.83;;;2.40;;
24277;SDS011;12394;42.692;23.314;2023-08-12T13:25:59;2.60;;;2.20;;
24277;SDS011;12394;42.692;23.314;2023-08-12T13:28:24;2.50;;;2.30;;
24277;SDS011;12394;42.692;23.314;2023-08-12T13:30:50;3.03;;;2.30;;
24277;SDS011;12394;42.692;23.314;2023-08-12T13:33:15;2.70;;;2.20;;
24277;SDS011;12394;42.692;23.314;2023-08-12T13:35:41;4.60;;;2.10;;
24277;SDS011;12394;42.692;23.314;2023-08-12T13:38:06;2.43;;;2.23;;
24277;SDS011;12394;42.692;23.314;2023-08-12T13:40:31;2.27;;;2.03;;
24277;SDS011;12394;42.692;23.314;2023-08-12T13:42:57;2.63;;;2.20;;
24277;SDS011;12394;42.692;23.314;2023-08-12T13:45:22;4.50;;;2.63;;
24277;SDS011;12394;42.692;23.314;2023-08-12T13:47:49;2.93;;;2.40;;
24277;SDS011;12394;42.692;23.314;2023-08-12T13:50:16;3.37;;;2.30;;
24277;SDS011;12394;42.692;23.314;2023-08-12T13:52:42;3.40;;;2.00;;
24277;SDS011;12394;42.692;23.314;2023-08-12T13:55:07;2.10;;;1.87;;
24277;SDS011;12394;42.692;23.314;2023-08-12T13:57:34;2.60;;;2.10;;
24277;SDS011;12394;42.692;23.314;2023-08-12T13:59:59;4.30;;;2.30;;
24277;SDS011;12394;42.692;23.314;2023-08-12T14:02:25;2.27;;;1.90;;
24277;SDS011;12394;42.692;23.314;2023-08-12T14:04:50;3.33;;;2.07;;
24277;SDS011;12394;42.692;23.314;2023-08-12T14:07:16;4.80;;;2.80;;
24277;SDS011;12394;42.692;23.314;2023-08-12T14:09:41;5.03;;;2.33;;
24277;SDS011;12394;42.692;23.314;2023-08-12T14:12:07;3.00;;;2.70;;
24277;SDS011;12394;42.692;23.314;2023-08-12T14:14:33;3.30;;;3.00;;
24277;SDS011;12394;42.692;23.314;2023-08-12T14:16:58;6.73;;;3.07;;
24277;SDS011;12394;42.692;23.314;2023-08-12T14:19:23;4.07;;;3.30;;
24277;SDS011;12394;42.692;23.314;2023-08-12T14:21:49;3.13;;;2.83;;
24277;SDS011;12394;42.692;23.314;2023-08-12T14:24:14;2.63;;;2.23;;
24277;SDS011;12394;42.692;23.314;2023-08-12T14:26:40;8.57;;;3.93;;
24277;SDS011;12394;42.692;23.314;2023-08-12T14:29:05;2.60;;;2.40;;
24277;SDS011;12394;42.692;23.314;2023-08-12T14:31:31;5.20;;;2.70;;
24277;SDS011;12394;42.692;23.314;2023-08-12T14:33:56;5.50;;;2.47;;
24277;SDS011;12394;42.692;23.314;2023-08-12T14:36:22;3.60;;;2.33;;
24277;SDS011;12394;42.692;23.314;2023-08-12T14:38:49;2.57;;;2.37;;
24277;SDS011;12394;42.692;23.314;2023-08-12T14:41:15;6.33;;;2.43;;
24277;SDS011;12394;42.692;23.314;2023-08-12T14:43:40;3.33;;;2.20;;